Aviation Digital Data Service (ADDS)

Output produced by METARs form (1238 UTC 03 March 2015)
found at http://aviationweather.gov/adds/metars/
 
KALB 031137Z 0312/0412 VRB04KT P6SM SCT250 
     FM031600 17006KT P6SM SCT120 OVC200 
     FM031900 18009KT P6SM VCSH OVC060 
     FM032100 18010G17KT 1SM -SN BR OVC015 
     FM040100 18011G18KT 2SM -FZRAPL BR OVC008 
     FM040500 21010KT 3SM BR VCSH OVC015